sensor_id;sensor_type;location;lat;lon;timestamp;P1;durP1;ratioP1;P2;durP2;ratioP2
49450;SDS011;35336;48.400;10.886;2023-05-07T00:00:01;14.75;;;5.60;;
49450;SDS011;35336;48.400;10.886;2023-05-07T00:00:17;10.48;;;5.65;;
49450;SDS011;35336;48.400;10.886;2023-05-07T00:00:33;9.67;;;5.77;;
49450;SDS011;35336;48.400;10.886;2023-05-07T00:00:48;11.35;;;6.00;;
49450;SDS011;35336;48.400;10.886;2023-05-07T00:01:04;12.37;;;5.97;;
49450;SDS011;35336;48.400;10.886;2023-05-07T00:01:19;9.07;;;5.43;;
49450;SDS011;35336;48.400;10.886;2023-05-07T00:01:34;10.68;;;5.53;;
49450;SDS011;35336;48.400;10.886;2023-05-07T00:01:50;10.43;;;5.60;;
49450;SDS011;35336;48.400;10.886;2023-05-07T00:02:05;8.23;;;5.37;;
49450;SDS011;35336;48.400;10.886;2023-05-07T00:02:21;10.57;;;5.77;;
49450;SDS011;35336;48.400;10.886;2023-05-07T00:02:36;10.17;;;5.63;;
49450;SDS011;35336;48.400;10.886;2023-05-07T00:02:52;10.27;;;5.60;;
49450;SDS011;35336;48.400;10.886;2023-05-07T00:03:07;10.88;;;5.90;;
49450;SDS011;35336;48.400;10.886;2023-05-07T00:03:23;8.63;;;5.77;;
49450;SDS011;35336;48.400;10.886;2023-05-07T00:03:38;8.90;;;5.23;;
49450;SDS011;35336;48.400;10.886;2023-05-07T00:03:53;9.77;;;5.32;;
49450;SDS011;35336;48.400;10.886;2023-05-07T00:04:09;8.17;;;5.23;;
49450;SDS011;35336;48.400;10.886;2023-05-07T00:04:24;6.87;;;5.10;;
49450;SDS011;35336;48.400;10.886;2023-05-07T00:04:39;9.32;;;5.40;;
49450;SDS011;35336;48.400;10.886;2023-05-07T00:04:55;10.20;;;5.63;;
49450;SDS011;35336;48.400;10.886;2023-05-07T00:05:10;11.23;;;5.80;;
49450;SDS011;35336;48.400;10.886;2023-05-07T00:05:25;12.35;;;5.72;;
49450;SDS011;35336;48.400;10.886;2023-05-07T00:05:41;12.70;;;5.80;;
49450;SDS011;35336;48.400;10.886;2023-05-07T00:05:56;10.57;;;5.70;;
49450;SDS011;35336;48.400;10.886;2023-05-07T00:06:11;8.00;;;5.60;;
49450;SDS011;35336;48.400;10.886;2023-05-07T00:06:27;10.10;;;6.20;;
49450;SDS011;35336;48.400;10.886;2023-05-07T00:06:42;11.00;;;6.35;;
49450;SDS011;35336;48.400;10.886;2023-05-07T00:06:58;10.03;;;5.97;;
49450;SDS011;35336;48.400;10.886;2023-05-07T00:07:13;11.20;;;6.20;;
49450;SDS011;35336;48.400;10.886;2023-05-07T00:07:28;9.45;;;5.82;;
49450;SDS011;35336;48.400;10.886;2023-05-07T00:07:44;11.60;;;5.83;;
49450;SDS011;35336;48.400;10.886;2023-05-07T00:07:59;14.40;;;6.80;;
49450;SDS011;35336;48.400;10.886;2023-05-07T00:08:14;10.70;;;6.70;;
49450;SDS011;35336;48.400;10.886;2023-05-07T00:08:30;8.73;;;6.13;;
49450;SDS011;35336;48.400;10.886;2023-05-07T00:08:45;11.93;;;6.27;;
49450;SDS011;35336;48.400;10.886;2023-05-07T00:09:00;11.60;;;5.93;;
49450;SDS011;35336;48.400;10.886;2023-05-07T00:09:16;9.30;;;5.87;;
49450;SDS011;35336;48.400;10.886;2023-05-07T00:09:31;9.33;;;5.90;;
49450;SDS011;35336;48.400;10.886;2023-05-07T00:09:46;8.40;;;5.47;;
49450;SDS011;35336;48.400;10.886;2023-05-07T00:10:02;9.13;;;5.53;;
49450;SDS011;35336;48.400;10.886;2023-05-07T00:10:18;9.13;;;5.40;;
49450;SDS011;35336;48.400;10.886;2023-05-07T00:10:34;9.03;;;5.63;;
49450;SDS011;35336;48.400;10.886;2023-05-07T00:10:49;8.80;;;5.60;;
49450;SDS011;35336;48.400;10.886;2023-05-07T00:11:04;7.40;;;5.20;;
49450;SDS011;35336;48.400;10.886;2023-05-07T00:11:20;8.60;;;5.20;;
49450;SDS011;35336;48.400;10.886;2023-05-07T00:11:35;9.20;;;5.17;;
49450;SDS011;35336;48.400;10.886;2023-05-07T00:11:50;8.77;;;4.97;;
49450;SDS011;35336;48.400;10.886;2023-05-07T00:12:06;10.87;;;5.17;;
49450;SDS011;35336;48.400;10.886;2023-05-07T00:12:22;12.73;;;5.97;;
49450;SDS011;35336;48.400;10.886;2023-05-07T00:12:37;12.77;;;6.13;;
49450;SDS011;35336;48.400;10.886;2023-05-07T00:12:53;11.00;;;5.53;;
49450;SDS011;35336;48.400;10.886;2023-05-07T00:13:08;8.85;;;5.63;;
49450;SDS011;35336;48.400;10.886;2023-05-07T00:13:24;8.33;;;5.50;;
49450;SDS011;35336;48.400;10.886;2023-05-07T00:13:39;16.50;;;5.23;;
49450;SDS011;35336;48.400;10.886;2023-05-07T00:13:54;17.55;;;5.60;;
49450;SDS011;35336;48.400;10.886;2023-05-07T00:14:10;9.27;;;5.20;;
49450;SDS011;35336;48.400;10.886;2023-05-07T00:14:25;10.93;;;5.22;;
49450;SDS011;35336;48.400;10.886;2023-05-07T00:14:40;11.60;;;5.67;;
49450;SDS011;35336;48.400;10.886;2023-05-07T00:14:56;10.23;;;5.60;;
49450;SDS011;35336;48.400;10.886;2023-05-07T00:15:11;10.57;;;5.68;;
49450;SDS011;35336;48.400;10.886;2023-05-07T00:15:27;10.80;;;5.63;;
49450;SDS011;35336;48.400;10.886;2023-05-07T00:15:42;12.53;;;6.00;;
49450;SDS011;35336;48.400;10.886;2023-05-07T00:15:57;12.27;;;5.82;;
49450;SDS011;35336;48.400;10.886;2023-05-07T00:16:13;12.37;;;5.47;;
49450;SDS011;35336;48.400;10.886;2023-05-07T00:16:28;10.97;;;5.60;;
49450;SDS011;35336;48.400;10.886;2023-05-07T00:16:43;7.10;;;5.53;;
49450;SDS011;35336;48.400;10.886;2023-05-07T00:16:59;8.07;;;5.47;;
49450;SDS011;35336;48.400;10.886;2023-05-07T00:17:14;9.73;;;5.57;;
49450;SDS011;35336;48.400;10.886;2023-05-07T00:17:30;11.70;;;5.80;;
49450;SDS011;35336;48.400;10.886;2023-05-07T00:17:45;11.90;;;5.53;;
49450;SDS011;35336;48.400;10.886;2023-05-07T00:18:00;10.20;;;5.65;;
49450;SDS011;35336;48.400;10.886;2023-05-07T00:18:16;7.70;;;5.23;;
49450;SDS011;35336;48.400;10.886;2023-05-07T00:18:31;8.82;;;5.20;;
49450;SDS011;35336;48.400;10.886;2023-05-07T00:18:47;11.93;;;5.60;;
49450;SDS011;35336;48.400;10.886;2023-05-07T00:19:03;10.80;;;5.40;;
49450;SDS011;35336;48.400;10.886;2023-05-07T00:19:18;9.35;;;5.53;;
49450;SDS011;35336;48.400;10.886;2023-05-07T00:19:34;8.33;;;5.87;;
49450;SDS011;35336;48.400;10.886;2023-05-07T00:19:49;7.18;;;5.43;;
49450;SDS011;35336;48.400;10.886;2023-05-07T00:20:05;11.80;;;5.30;;
49450;SDS011;35336;48.400;10.886;2023-05-07T00:20:20;18.50;;;5.75;;
49450;SDS011;35336;48.400;10.886;2023-05-07T00:20:36;13.73;;;5.57;;
49450;SDS011;35336;48.400;10.886;2023-05-07T00:20:51;8.77;;;5.20;;
49450;SDS011;35336;48.400;10.886;2023-05-07T00:21:06;9.37;;;5.37;;
49450;SDS011;35336;48.400;10.886;2023-05-07T00:21:22;8.83;;;5.40;;
49450;SDS011;35336;48.400;10.886;2023-05-07T00:21:37;9.77;;;5.40;;
49450;SDS011;35336;48.400;10.886;2023-05-07T00:21:53;15.00;;;5.30;;
49450;SDS011;35336;48.400;10.886;2023-05-07T00:22:08;15.33;;;5.40;;
49450;SDS011;35336;48.400;10.886;2023-05-07T00:22:23;9.75;;;5.03;;
49450;SDS011;35336;48.400;10.886;2023-05-07T00:22:39;9.60;;;4.90;;
49450;SDS011;35336;48.400;10.886;2023-05-07T00:22:54;10.90;;;5.27;;
49450;SDS011;35336;48.400;10.886;2023-05-07T00:23:09;8.52;;;5.18;;
49450;SDS011;35336;48.400;10.886;2023-05-07T00:23:25;8.17;;;5.37;;
49450;SDS011;35336;48.400;10.886;2023-05-07T00:23:40;10.33;;;5.60;;
49450;SDS011;35336;48.400;10.886;2023-05-07T00:23:55;10.05;;;5.47;;
49450;SDS011;35336;48.400;10.886;2023-05-07T00:24:11;9.10;;;5.53;;
49450;SDS011;35336;48.400;10.886;2023-05-07T00:24:26;10.68;;;5.15;;
49450;SDS011;35336;48.400;10.886;2023-05-07T00:24:42;14.37;;;5.13;;
49450;SDS011;35336;48.400;10.886;2023-05-07T00:24:57;13.40;;;5.47;;
49450;SDS011;35336;48.400;10.886;2023-05-07T00:25:12;10.38;;;5.57;;
49450;SDS011;35336;48.400;10.886;2023-05-07T00:25:28;12.13;;;5.47;;
49450;SDS011;35336;48.400;10.886;2023-05-07T00:25:43;12.93;;;5.30;;
49450;SDS011;35336;48.400;10.886;2023-05-07T00:25:58;10.90;;;5.35;;
49450;SDS011;35336;48.400;10.886;2023-05-07T00:26:14;10.43;;;5.30;;
49450;SDS011;35336;48.400;10.886;2023-05-07T00:26:29;11.40;;;5.17;;
49450;SDS011;35336;48.400;10.886;2023-05-07T00:26:44;10.20;;;5.10;;
49450;SDS011;35336;48.400;10.886;2023-05-07T00:27:00;10.23;;;4.87;;
49450;SDS011;35336;48.400;10.886;2023-05-07T00:27:15;10.77;;;4.67;;
49450;SDS011;35336;48.400;10.886;2023-05-07T00:27:31;11.98;;;4.85;;
49450;SDS011;35336;48.400;10.886;2023-05-07T00:27:46;10.13;;;4.67;;
49450;SDS011;35336;48.400;10.886;2023-05-07T00:28:01;9.15;;;4.88;;
49450;SDS011;35336;48.400;10.886;2023-05-07T00:28:17;9.63;;;5.30;;
49450;SDS011;35336;48.400;10.886;2023-05-07T00:28:32;6.67;;;5.13;;
49450;SDS011;35336;48.400;10.886;2023-05-07T00:28:47;8.10;;;5.07;;
49450;SDS011;35336;48.400;10.886;2023-05-07T00:29:03;10.50;;;5.70;;
49450;SDS011;35336;48.400;10.886;2023-05-07T00:29:18;9.13;;;5.80;;
49450;SDS011;35336;48.400;10.886;2023-05-07T00:29:33;10.85;;;5.30;;
49450;SDS011;35336;48.400;10.886;2023-05-07T00:29:49;12.10;;;5.43;;
49450;SDS011;35336;48.400;10.886;2023-05-07T00:30:04;8.40;;;5.40;;
49450;SDS011;35336;48.400;10.886;2023-05-07T00:30:20;8.27;;;5.05;;
49450;SDS011;35336;48.400;10.886;2023-05-07T00:30:35;9.43;;;5.22;;
49450;SDS011;35336;48.400;10.886;2023-05-07T00:30:51;12.17;;;5.83;;
49450;SDS011;35336;48.400;10.886;2023-05-07T00:31:06;11.67;;;5.60;;
49450;SDS011;35336;48.400;10.886;2023-05-07T00:31:21;8.65;;;5.32;;
49450;SDS011;35336;48.400;10.886;2023-05-07T00:31:37;9.03;;;5.30;;
49450;SDS011;35336;48.400;10.886;2023-05-07T00:31:52;11.27;;;5.47;;
49450;SDS011;35336;48.400;10.886;2023-05-07T00:32:07;12.80;;;5.90;;
49450;SDS011;35336;48.400;10.886;2023-05-07T00:32:23;9.18;;;5.60;;
49450;SDS011;35336;48.400;10.886;2023-05-07T00:32:38;7.60;;;5.10;;
49450;SDS011;35336;48.400;10.886;2023-05-07T00:32:54;9.13;;;5.67;;
49450;SDS011;35336;48.400;10.886;2023-05-07T00:33:09;12.30;;;6.23;;
49450;SDS011;35336;48.400;10.886;2023-05-07T00:33:24;11.07;;;6.13;;
49450;SDS011;35336;48.400;10.886;2023-05-07T00:33:40;11.13;;;5.87;;
49450;SDS011;35336;48.400;10.886;2023-05-07T00:33:55;12.17;;;5.40;;
49450;SDS011;35336;48.400;10.886;2023-05-07T00:34:10;9.32;;;5.28;;
49450;SDS011;35336;48.400;10.886;2023-05-07T00:34:26;8.30;;;5.27;;
49450;SDS011;35336;48.400;10.886;2023-05-07T00:34:41;9.13;;;5.17;;
49450;SDS011;35336;48.400;10.886;2023-05-07T00:34:57;8.98;;;5.28;;
49450;SDS011;35336;48.400;10.886;2023-05-07T00:35:12;8.40;;;4.95;;
49450;SDS011;35336;48.400;10.886;2023-05-07T00:35:28;8.90;;;4.90;;
49450;SDS011;35336;48.400;10.886;2023-05-07T00:35:44;7.28;;;5.00;;
49450;SDS011;35336;48.400;10.886;2023-05-07T00:35:59;7.60;;;4.90;;
49450;SDS011;35336;48.400;10.886;2023-05-07T00:36:14;8.77;;;5.10;;
49450;SDS011;35336;48.400;10.886;2023-05-07T00:36:30;9.10;;;5.33;;
49450;SDS011;35336;48.400;10.886;2023-05-07T00:36:45;9.00;;;5.20;;
49450;SDS011;35336;48.400;10.886;2023-05-07T00:37:01;8.50;;;5.13;;
49450;SDS011;35336;48.400;10.886;2023-05-07T00:37:16;7.87;;;5.43;;
49450;SDS011;35336;48.400;10.886;2023-05-07T00:37:31;8.38;;;5.55;;
49450;SDS011;35336;48.400;10.886;2023-05-07T00:37:47;13.10;;;5.67;;
49450;SDS011;35336;48.400;10.886;2023-05-07T00:38:02;15.93;;;6.00;;
49450;SDS011;35336;48.400;10.886;2023-05-07T00:38:18;13.95;;;5.80;;
49450;SDS011;35336;48.400;10.886;2023-05-07T00:38:33;11.40;;;5.63;;
49450;SDS011;35336;48.400;10.886;2023-05-07T00:38:48;10.73;;;6.00;;
49450;SDS011;35336;48.400;10.886;2023-05-07T00:39:03;10.10;;;5.97;;
49450;SDS011;35336;48.400;10.886;2023-05-07T00:39:19;12.80;;;5.90;;
49450;SDS011;35336;48.400;10.886;2023-05-07T00:39:34;15.13;;;5.60;;
49450;SDS011;35336;48.400;10.886;2023-05-07T00:39:50;12.15;;;5.38;;
49450;SDS011;35336;48.400;10.886;2023-05-07T00:40:05;12.60;;;5.67;;
49450;SDS011;35336;48.400;10.886;2023-05-07T00:40:22;12.05;;;5.53;;
49450;SDS011;35336;48.400;10.886;2023-05-07T00:40:37;9.87;;;5.27;;
49450;SDS011;35336;48.400;10.886;2023-05-07T00:40:52;8.98;;;5.47;;
49450;SDS011;35336;48.400;10.886;2023-05-07T00:41:08;8.70;;;5.77;;
49450;SDS011;35336;48.400;10.886;2023-05-07T00:41:23;8.03;;;5.70;;
49450;SDS011;35336;48.400;10.886;2023-05-07T00:41:38;8.35;;;6.05;;
49450;SDS011;35336;48.400;10.886;2023-05-07T00:41:54;9.57;;;6.13;;
49450;SDS011;35336;48.400;10.886;2023-05-07T00:42:09;10.02;;;5.68;;
49450;SDS011;35336;48.400;10.886;2023-05-07T00:42:25;11.33;;;5.83;;
49450;SDS011;35336;48.400;10.886;2023-05-07T00:42:40;9.73;;;6.17;;
49450;SDS011;35336;48.400;10.886;2023-05-07T00:42:55;8.77;;;5.80;;
49450;SDS011;35336;48.400;10.886;2023-05-07T00:43:11;8.60;;;5.70;;
49450;SDS011;35336;48.400;10.886;2023-05-07T00:43:26;8.13;;;5.97;;
49450;SDS011;35336;48.400;10.886;2023-05-07T00:43:41;8.35;;;5.70;;
49450;SDS011;35336;48.400;10.886;2023-05-07T00:43:57;7.50;;;5.60;;
49450;SDS011;35336;48.400;10.886;2023-05-07T00:44:13;6.53;;;5.60;;
49450;SDS011;35336;48.400;10.886;2023-05-07T00:44:28;7.57;;;5.43;;
49450;SDS011;35336;48.400;10.886;2023-05-07T00:44:44;8.48;;;5.60;;
49450;SDS011;35336;48.400;10.886;2023-05-07T00:44:59;9.73;;;5.97;;
49450;SDS011;35336;48.400;10.886;2023-05-07T00:45:15;9.02;;;5.65;;
49450;SDS011;35336;48.400;10.886;2023-05-07T00:45:31;8.00;;;5.15;;
49450;SDS011;35336;48.400;10.886;2023-05-07T00:45:46;11.77;;;5.33;;
49450;SDS011;35336;48.400;10.886;2023-05-07T00:46:02;11.88;;;5.65;;
49450;SDS011;35336;48.400;10.886;2023-05-07T00:46:18;10.30;;;5.23;;
49450;SDS011;35336;48.400;10.886;2023-05-07T00:46:35;8.80;;;5.22;;
49450;SDS011;35336;48.400;10.886;2023-05-07T00:46:51;8.02;;;5.50;;
49450;SDS011;35336;48.400;10.886;2023-05-07T00:47:06;9.10;;;5.07;;
49450;SDS011;35336;48.400;10.886;2023-05-07T00:47:22;11.45;;;5.30;;
49450;SDS011;35336;48.400;10.886;2023-05-07T00:47:37;10.77;;;5.50;;
49450;SDS011;35336;48.400;10.886;2023-05-07T00:47:57;8.43;;;5.13;;
49450;SDS011;35336;48.400;10.886;2023-05-07T00:48:14;9.45;;;5.32;;
49450;SDS011;35336;48.400;10.886;2023-05-07T00:48:30;9.30;;;5.45;;
49450;SDS011;35336;48.400;10.886;2023-05-07T00:48:47;10.73;;;5.43;;
49450;SDS011;35336;48.400;10.886;2023-05-07T00:49:03;12.05;;;5.95;;
49450;SDS011;35336;48.400;10.886;2023-05-07T00:49:18;9.67;;;5.53;;
49450;SDS011;35336;48.400;10.886;2023-05-07T00:49:38;9.77;;;4.88;;
49450;SDS011;35336;48.400;10.886;2023-05-07T00:49:56;11.90;;;5.10;;
49450;SDS011;35336;48.400;10.886;2023-05-07T00:50:12;11.57;;;5.13;;
49450;SDS011;35336;48.400;10.886;2023-05-07T00:50:27;9.90;;;5.30;;
49450;SDS011;35336;48.400;10.886;2023-05-07T00:50:44;6.32;;;5.00;;
49450;SDS011;35336;48.400;10.886;2023-05-07T00:51:00;6.45;;;4.72;;
49450;SDS011;35336;48.400;10.886;2023-05-07T00:51:15;9.33;;;5.10;;
49450;SDS011;35336;48.400;10.886;2023-05-07T00:51:32;12.07;;;5.13;;
49450;SDS011;35336;48.400;10.886;2023-05-07T00:51:48;10.90;;;5.28;;
49450;SDS011;35336;48.400;10.886;2023-05-07T00:52:05;9.43;;;5.38;;
49450;SDS011;35336;48.400;10.886;2023-05-07T00:52:21;8.68;;;5.50;;
49450;SDS011;35336;48.400;10.886;2023-05-07T00:52:40;6.72;;;5.00;;
49450;SDS011;35336;48.400;10.886;2023-05-07T00:52:55;8.73;;;4.90;;
49450;SDS011;35336;48.400;10.886;2023-05-07T00:53:11;9.57;;;5.03;;
49450;SDS011;35336;48.400;10.886;2023-05-07T00:53:27;8.43;;;4.75;;
49450;SDS011;35336;48.400;10.886;2023-05-07T00:53:42;8.20;;;4.97;;
49450;SDS011;35336;48.400;10.886;2023-05-07T00:53:59;9.55;;;5.28;;
49450;SDS011;35336;48.400;10.886;2023-05-07T00:54:15;11.68;;;5.07;;
49450;SDS011;35336;48.400;10.886;2023-05-07T00:54:31;8.40;;;5.13;;
49450;SDS011;35336;48.400;10.886;2023-05-07T00:54:48;6.85;;;4.78;;
49450;SDS011;35336;48.400;10.886;2023-05-07T00:55:04;8.07;;;5.03;;
49450;SDS011;35336;48.400;10.886;2023-05-07T00:55:21;8.48;;;5.18;;
49450;SDS011;35336;48.400;10.886;2023-05-07T00:55:37;8.27;;;4.90;;
49450;SDS011;35336;48.400;10.886;2023-05-07T00:55:53;12.95;;;5.03;;
49450;SDS011;35336;48.400;10.886;2023-05-07T00:56:09;13.82;;;5.40;;
49450;SDS011;35336;48.400;10.886;2023-05-07T00:56:24;9.53;;;5.30;;
49450;SDS011;35336;48.400;10.886;2023-05-07T00:56:39;7.60;;;4.87;;
49450;SDS011;35336;48.400;10.886;2023-05-07T00:56:55;8.03;;;5.13;;
49450;SDS011;35336;48.400;10.886;2023-05-07T00:57:11;8.13;;;5.30;;
49450;SDS011;35336;48.400;10.886;2023-05-07T00:57:26;10.30;;;5.03;;
49450;SDS011;35336;48.400;10.886;2023-05-07T00:57:42;12.73;;;5.68;;
49450;SDS011;35336;48.400;10.886;2023-05-07T00:57:57;10.77;;;5.47;;
49450;SDS011;35336;48.400;10.886;2023-05-07T00:58:12;7.50;;;4.70;;
49450;SDS011;35336;48.400;10.886;2023-05-07T00:58:28;6.60;;;4.65;;
49450;SDS011;35336;48.400;10.886;2023-05-07T00:58:43;8.37;;;4.90;;
49450;SDS011;35336;48.400;10.886;2023-05-07T00:58:59;9.50;;;5.07;;
49450;SDS011;35336;48.400;10.886;2023-05-07T00:59:16;8.20;;;5.00;;
49450;SDS011;35336;48.400;10.886;2023-05-07T00:59:32;8.25;;;4.90;;
49450;SDS011;35336;48.400;10.886;2023-05-07T00:59:48;9.18;;;4.80;;
49450;SDS011;35336;48.400;10.886;2023-05-07T01:00:05;8.82;;;4.72;;
49450;SDS011;35336;48.400;10.886;2023-05-07T01:00:22;6.60;;;4.78;;
49450;SDS011;35336;48.400;10.886;2023-05-07T01:00:37;7.63;;;4.83;;
49450;SDS011;35336;48.400;10.886;2023-05-07T01:00:52;8.77;;;4.83;;
49450;SDS011;35336;48.400;10.886;2023-05-07T01:01:08;8.90;;;4.90;;
49450;SDS011;35336;48.400;10.886;2023-05-07T01:01:23;8.37;;;4.70;;
49450;SDS011;35336;48.400;10.886;2023-05-07T01:01:38;9.10;;;5.15;;
49450;SDS011;35336;48.400;10.886;2023-05-07T01:01:54;13.07;;;5.67;;
49450;SDS011;35336;48.400;10.886;2023-05-07T01:02:10;12.97;;;5.53;;
49450;SDS011;35336;48.400;10.886;2023-05-07T01:02:25;9.90;;;5.30;;
49450;SDS011;35336;48.400;10.886;2023-05-07T01:02:41;10.43;;;4.97;;
49450;SDS011;35336;48.400;10.886;2023-05-07T01:02:57;10.85;;;4.78;;
49450;SDS011;35336;48.400;10.886;2023-05-07T01:03:12;7.28;;;4.95;;
49450;SDS011;35336;48.400;10.886;2023-05-07T01:03:27;7.55;;;4.90;;
49450;SDS011;35336;48.400;10.886;2023-05-07T01:03:43;6.33;;;4.47;;
49450;SDS011;35336;48.400;10.886;2023-05-07T01:03:58;6.00;;;4.45;;
49450;SDS011;35336;48.400;10.886;2023-05-07T01:04:14;8.93;;;4.57;;
49450;SDS011;35336;48.400;10.886;2023-05-07T01:04:29;9.27;;;4.87;;
49450;SDS011;35336;48.400;10.886;2023-05-07T01:04:44;8.95;;;5.20;;
49450;SDS011;35336;48.400;10.886;2023-05-07T01:05:00;10.87;;;5.20;;
49450;SDS011;35336;48.400;10.886;2023-05-07T01:05:16;11.40;;;4.80;;
49450;SDS011;35336;48.400;10.886;2023-05-07T01:05:33;9.93;;;4.72;;
49450;SDS011;35336;48.400;10.886;2023-05-07T01:05:49;10.10;;;4.68;;
49450;SDS011;35336;48.400;10.886;2023-05-07T01:06:06;12.07;;;4.93;;
49450;SDS011;35336;48.400;10.886;2023-05-07T01:06:23;13.02;;;5.15;;
49450;SDS011;35336;48.400;10.886;2023-05-07T01:06:40;9.30;;;5.03;;
49450;SDS011;35336;48.400;10.886;2023-05-07T01:06:56;7.95;;;4.93;;
49450;SDS011;35336;48.400;10.886;2023-05-07T01:07:13;9.45;;;4.90;;
49450;SDS011;35336;48.400;10.886;2023-05-07T01:07:29;9.23;;;4.88;;
49450;SDS011;35336;48.400;10.886;2023-05-07T01:07:45;9.95;;;4.82;;
49450;SDS011;35336;48.400;10.886;2023-05-07T01:08:01;11.80;;;4.95;;
49450;SDS011;35336;48.400;10.886;2023-05-07T01:08:17;10.73;;;4.57;;
49450;SDS011;35336;48.400;10.886;2023-05-07T01:08:33;10.30;;;4.90;;
49450;SDS011;35336;48.400;10.886;2023-05-07T01:08:49;9.02;;;5.38;;
49450;SDS011;35336;48.400;10.886;2023-05-07T01:09:05;7.20;;;4.85;;
49450;SDS011;35336;48.400;10.886;2023-05-07T01:09:20;7.30;;;4.50;;
49450;SDS011;35336;48.400;10.886;2023-05-07T01:09:35;8.10;;;4.50;;
49450;SDS011;35336;48.400;10.886;2023-05-07T01:09:51;7.53;;;4.60;;
49450;SDS011;35336;48.400;10.886;2023-05-07T01:10:07;6.88;;;4.85;;
49450;SDS011;35336;48.400;10.886;2023-05-07T01:10:24;7.60;;;4.90;;
49450;SDS011;35336;48.400;10.886;2023-05-07T01:10:39;7.37;;;4.60;;
49450;SDS011;35336;48.400;10.886;2023-05-07T01:10:55;8.40;;;4.60;;
49450;SDS011;35336;48.400;10.886;2023-05-07T01:11:12;9.00;;;4.57;;
49450;SDS011;35336;48.400;10.886;2023-05-07T01:11:27;8.50;;;4.63;;
49450;SDS011;35336;48.400;10.886;2023-05-07T01:11:43;7.95;;;4.75;;
49450;SDS011;35336;48.400;10.886;2023-05-07T01:11:59;6.57;;;4.55;;
49450;SDS011;35336;48.400;10.886;2023-05-07T01:12:14;6.47;;;4.33;;
49450;SDS011;35336;48.400;10.886;2023-05-07T01:12:30;7.95;;;4.47;;
49450;SDS011;35336;48.400;10.886;2023-05-07T01:12:46;8.52;;;4.55;;
49450;SDS011;35336;48.400;10.886;2023-05-07T01:13:03;9.32;;;4.50;;
49450;SDS011;35336;48.400;10.886;2023-05-07T01:13:19;7.03;;;4.43;;
49450;SDS011;35336;48.400;10.886;2023-05-07T01:13:35;5.90;;;4.43;;
49450;SDS011;35336;48.400;10.886;2023-05-07T01:13:52;8.35;;;4.57;;
49450;SDS011;35336;48.400;10.886;2023-05-07T01:14:08;10.50;;;4.68;;
49450;SDS011;35336;48.400;10.886;2023-05-07T01:14:24;10.98;;;4.70;;
49450;SDS011;35336;48.400;10.886;2023-05-07T01:14:40;11.82;;;4.70;;
49450;SDS011;35336;48.400;10.886;2023-05-07T01:14:56;12.13;;;4.68;;
49450;SDS011;35336;48.400;10.886;2023-05-07T01:15:12;8.90;;;4.40;;
49450;SDS011;35336;48.400;10.886;2023-05-07T01:15:27;8.13;;;4.60;;
49450;SDS011;35336;48.400;10.886;2023-05-07T01:15:43;8.40;;;5.03;;
49450;SDS011;35336;48.400;10.886;2023-05-07T01:15:58;8.70;;;4.90;;
49450;SDS011;35336;48.400;10.886;2023-05-07T01:16:14;8.95;;;4.43;;
49450;SDS011;35336;48.400;10.886;2023-05-07T01:16:29;9.97;;;4.20;;
49450;SDS011;35336;48.400;10.886;2023-05-07T01:16:44;10.50;;;4.43;;
49450;SDS011;35336;48.400;10.886;2023-05-07T01:17:00;10.60;;;5.18;;
49450;SDS011;35336;48.400;10.886;2023-05-07T01:17:15;11.43;;;4.90;;
49450;SDS011;35336;48.400;10.886;2023-05-07T01:17:35;10.38;;;4.50;;
49450;SDS011;35336;48.400;10.886;2023-05-07T01:17:51;8.95;;;4.60;;
49450;SDS011;35336;48.400;10.886;2023-05-07T01:18:06;10.40;;;4.47;;
49450;SDS011;35336;48.400;10.886;2023-05-07T01:18:22;9.60;;;4.68;;
49450;SDS011;35336;48.400;10.886;2023-05-07T01:18:37;8.57;;;4.60;;
49450;SDS011;35336;48.400;10.886;2023-05-07T01:18:53;9.40;;;4.60;;
49450;SDS011;35336;48.400;10.886;2023-05-07T01:19:08;10.50;;;4.90;;
49450;SDS011;35336;48.400;10.886;2023-05-07T01:19:26;10.30;;;4.82;;
49450;SDS011;35336;48.400;10.886;2023-05-07T01:19:44;15.85;;;4.68;;
49450;SDS011;35336;48.400;10.886;2023-05-07T01:19:59;15.43;;;4.80;;
49450;SDS011;35336;48.400;10.886;2023-05-07T01:20:14;9.70;;;4.40;;
49450;SDS011;35336;48.400;10.886;2023-05-07T01:20:30;11.23;;;4.10;;
49450;SDS011;35336;48.400;10.886;2023-05-07T01:20:45;8.17;;;4.10;;
49450;SDS011;35336;48.400;10.886;2023-05-07T01:21:01;8.02;;;4.45;;
49450;SDS011;35336;48.400;10.886;2023-05-07T01:21:18;11.32;;;4.70;;
49450;SDS011;35336;48.400;10.886;2023-05-07T01:21:40;9.48;;;4.28;;
49450;SDS011;35336;48.400;10.886;2023-05-07T01:22:03;6.63;;;4.25;;
49450;SDS011;35336;48.400;10.886;2023-05-07T01:22:32;5.50;;;4.18;;
49450;SDS011;35336;48.400;10.886;2023-05-07T01:22:51;6.28;;;4.18;;
49450;SDS011;35336;48.400;10.886;2023-05-07T01:23:08;5.55;;;3.78;;
49450;SDS011;35336;48.400;10.886;2023-05-07T01:23:25;7.88;;;3.85;;
49450;SDS011;35336;48.400;10.886;2023-05-07T01:23:42;10.50;;;3.97;;
49450;SDS011;35336;48.400;10.886;2023-05-07T01:23:58;9.25;;;4.25;;
49450;SDS011;35336;48.400;10.886;2023-05-07T01:24:14;10.07;;;4.47;;
49450;SDS011;35336;48.400;10.886;2023-05-07T01:24:31;8.73;;;4.05;;
49450;SDS011;35336;48.400;10.886;2023-05-07T01:24:46;7.38;;;3.95;;
49450;SDS011;35336;48.400;10.886;2023-05-07T01:25:03;9.32;;;4.10;;
49450;SDS011;35336;48.400;10.886;2023-05-07T01:25:19;8.90;;;4.20;;
49450;SDS011;35336;48.400;10.886;2023-05-07T01:25:34;7.68;;;4.38;;
49450;SDS011;35336;48.400;10.886;2023-05-07T01:25:53;7.53;;;4.38;;
49450;SDS011;35336;48.400;10.886;2023-05-07T01:26:09;5.95;;;4.20;;
49450;SDS011;35336;48.400;10.886;2023-05-07T01:26:25;6.63;;;4.20;;
49450;SDS011;35336;48.400;10.886;2023-05-07T01:26:40;8.13;;;4.50;;
49450;SDS011;35336;48.400;10.886;2023-05-07T01:26:58;10.00;;;4.82;;
49450;SDS011;35336;48.400;10.886;2023-05-07T01:27:13;9.40;;;4.40;;
49450;SDS011;35336;48.400;10.886;2023-05-07T01:27:28;8.37;;;4.70;;
49450;SDS011;35336;48.400;10.886;2023-05-07T01:27:44;8.00;;;4.60;;
49450;SDS011;35336;48.400;10.886;2023-05-07T01:27:59;6.47;;;4.43;;
49450;SDS011;35336;48.400;10.886;2023-05-07T01:28:15;8.23;;;4.80;;
49450;SDS011;35336;48.400;10.886;2023-05-07T01:28:30;8.05;;;4.68;;
49450;SDS011;35336;48.400;10.886;2023-05-07T01:28:45;6.30;;;4.60;;
49450;SDS011;35336;48.400;10.886;2023-05-07T01:29:01;8.00;;;4.63;;
49450;SDS011;35336;48.400;10.886;2023-05-07T01:29:16;8.77;;;4.47;;
49450;SDS011;35336;48.400;10.886;2023-05-07T01:29:31;8.97;;;4.73;;
49450;SDS011;35336;48.400;10.886;2023-05-07T01:29:47;8.60;;;4.90;;
49450;SDS011;35336;48.400;10.886;2023-05-07T01:30:03;6.60;;;4.70;;
49450;SDS011;35336;48.400;10.886;2023-05-07T01:30:21;6.28;;;4.90;;
49450;SDS011;35336;48.400;10.886;2023-05-07T01:30:37;9.05;;;4.90;;
49450;SDS011;35336;48.400;10.886;2023-05-07T01:31:02;8.73;;;4.53;;
49450;SDS011;35336;48.400;10.886;2023-05-07T01:31:19;7.18;;;4.70;;
49450;SDS011;35336;48.400;10.886;2023-05-07T01:31:35;7.80;;;4.50;;
49450;SDS011;35336;48.400;10.886;2023-05-07T01:31:52;6.38;;;4.28;;
49450;SDS011;35336;48.400;10.886;2023-05-07T01:32:07;7.07;;;4.70;;
49450;SDS011;35336;48.400;10.886;2023-05-07T01:32:47;9.98;;;4.93;;
49450;SDS011;35336;48.400;10.886;2023-05-07T01:33:11;9.90;;;4.70;;
49450;SDS011;35336;48.400;10.886;2023-05-07T01:33:31;8.02;;;4.43;;
49450;SDS011;35336;48.400;10.886;2023-05-07T01:33:49;14.10;;;4.50;;